createdAt,value
2022-10-21T00:04:36.309Z,12.70
2022-10-21T00:09:42.067Z,11.67
2022-10-21T00:14:51.587Z,10.70
2022-10-21T00:19:58.678Z,9.80
2022-10-21T00:25:03.823Z,9.53
2022-10-21T00:30:14.759Z,10.83
2022-10-21T00:35:19.737Z,11.00
2022-10-21T00:40:24.485Z,11.53
2022-10-21T00:45:32.973Z,14.00
2022-10-21T00:50:42.741Z,10.90
2022-10-21T00:55:52.842Z,12.30
2022-10-21T01:01:03.155Z,12.73
2022-10-21T01:06:12.249Z,10.70
2022-10-21T01:11:20.923Z,14.33
2022-10-21T01:16:36.785Z,13.03
2022-10-21T01:21:46.585Z,10.20
2022-10-21T01:27:11.435Z,11.67
2022-10-21T01:32:30.729Z,11.00
2022-10-21T01:37:43.021Z,13.10
2022-10-21T01:42:55.525Z,11.50
2022-10-21T01:48:07.372Z,13.30
2022-10-21T01:53:15.712Z,11.70
2022-10-21T01:58:23.513Z,14.73
2022-10-21T02:03:34.309Z,12.50
2022-10-21T02:08:39.231Z,15.27
2022-10-21T02:13:48.525Z,14.47
2022-10-21T02:18:57.443Z,15.00
2022-10-21T02:24:08.038Z,12.57
2022-10-21T02:29:13.735Z,12.43
2022-10-21T02:34:32.769Z,13.33
2022-10-21T02:39:41.887Z,16.13
2022-10-21T02:44:46.587Z,13.07
2022-10-21T02:49:53.919Z,13.73
2022-10-21T02:54:58.727Z,13.47
2022-10-21T03:00:03.736Z,16.50
2022-10-21T03:05:13.116Z,15.80
2022-10-21T03:10:18.006Z,13.70
2022-10-21T03:15:22.851Z,17.13
2022-10-21T03:20:30.303Z,18.53
2022-10-21T03:25:37.330Z,15.37
2022-10-21T03:30:42.208Z,16.83
2022-10-21T03:35:49.556Z,14.17
2022-10-21T03:40:54.428Z,15.40
2022-10-21T03:45:59.183Z,16.00
2022-10-21T03:51:06.778Z,17.73
2022-10-21T03:56:11.673Z,17.20
2022-10-21T04:01:16.754Z,19.57
2022-10-21T04:06:24.192Z,16.07
2022-10-21T04:11:28.962Z,14.03
2022-10-21T04:16:34.346Z,14.03
2022-10-21T04:21:41.813Z,15.70
2022-10-21T04:26:46.894Z,16.57
2022-10-21T04:31:51.852Z,22.57
2022-10-21T04:37:01.211Z,14.20
2022-10-21T04:42:08.918Z,15.43
2022-10-21T04:47:13.825Z,14.07
2022-10-21T04:52:21.242Z,14.10
2022-10-21T04:57:26.147Z,19.70
2022-10-21T05:02:30.913Z,15.00
2022-10-21T05:07:38.402Z,20.43
2022-10-21T05:12:43.201Z,12.80
2022-10-21T05:17:48.099Z,15.37
2022-10-21T05:22:55.513Z,15.93
2022-10-21T05:28:00.613Z,14.43
2022-10-21T05:33:05.638Z,15.53
2022-10-21T05:38:13.163Z,16.23
2022-10-21T05:43:18.333Z,18.50
2022-10-21T05:48:23.358Z,17.17
2022-10-21T05:53:30.875Z,19.70
2022-10-21T05:58:37.354Z,15.93
2022-10-21T06:03:42.195Z,17.37
2022-10-21T06:08:49.915Z,15.43
2022-10-21T06:13:54.941Z,16.37
2022-10-21T06:18:59.724Z,15.73
2022-10-21T06:24:07.365Z,14.37
2022-10-21T06:29:12.293Z,13.37
2022-10-21T06:39:25.215Z,15.90
2022-10-21T06:44:30.190Z,12.37
2022-10-21T06:49:35.095Z,14.47
2022-10-21T06:54:42.977Z,16.90
2022-10-21T06:59:49.508Z,13.47
2022-10-21T07:04:54.842Z,12.70
2022-10-21T07:10:02.376Z,13.30
2022-10-21T07:15:08.289Z,14.10
2022-10-21T07:20:13.990Z,15.53
2022-10-21T07:25:21.660Z,12.40
2022-10-21T07:30:26.579Z,15.17
2022-10-21T07:35:31.658Z,16.13
2022-10-21T07:40:42.519Z,14.67
2022-10-21T07:45:47.975Z,12.50
2022-10-21T07:50:53.886Z,12.20
2022-10-21T07:56:10.829Z,12.50
2022-10-21T08:01:16.703Z,14.80
2022-10-21T08:06:21.626Z,11.53
2022-10-21T08:11:31.143Z,13.57
2022-10-21T08:16:36.055Z,12.73
2022-10-21T08:21:44.301Z,9.07
2022-10-21T08:26:52.310Z,12.93
2022-10-21T08:31:57.539Z,13.90
2022-10-21T08:37:02.689Z,11.40
2022-10-21T08:42:19.923Z,12.43
2022-10-21T08:47:36.016Z,9.07
2022-10-21T08:52:45.144Z,10.00
2022-10-21T08:57:58.040Z,11.27
2022-10-21T09:03:13.895Z,10.20
2022-10-21T09:08:29.868Z,9.07
2022-10-21T09:13:59.425Z,9.73
2022-10-21T09:19:14.251Z,9.80
2022-10-21T09:24:22.330Z,12.40
2022-10-21T09:29:33.951Z,7.57
2022-10-21T09:34:48.379Z,8.33
2022-10-21T09:40:00.729Z,9.97
2022-10-21T09:45:17.814Z,11.50
2022-10-21T09:50:23.163Z,8.97
2022-10-21T09:55:30.220Z,9.07
2022-10-21T10:00:50.249Z,8.53
2022-10-21T10:05:55.771Z,13.13
2022-10-21T10:11:15.389Z,6.67
2022-10-21T10:16:30.187Z,10.67
2022-10-21T10:21:35.041Z,10.57
2022-10-21T10:26:42.522Z,8.63
2022-10-21T10:31:53.613Z,8.57
2022-10-21T10:37:04.834Z,12.27
2022-10-21T10:42:10.990Z,11.77
2022-10-21T10:47:32.188Z,10.97
2022-10-21T10:52:37.428Z,8.87
2022-10-21T10:57:58.813Z,9.73
2022-10-21T11:03:26.304Z,10.47
2022-10-21T11:08:39.874Z,9.43
2022-10-21T11:13:47.178Z,11.17
2022-10-21T11:19:04.510Z,10.30
2022-10-21T11:24:42.477Z,11.33
2022-10-21T11:30:12.164Z,15.27
2022-10-21T11:35:35.504Z,12.90
2022-10-21T11:40:44.665Z,9.30
2022-10-21T11:46:01.126Z,14.83
2022-10-21T11:51:18.504Z,10.60
2022-10-21T11:56:38.622Z,11.63
2022-10-21T12:01:50.643Z,13.03
2022-10-21T12:07:15.555Z,11.80
2022-10-21T12:12:25.899Z,12.13
2022-10-21T12:17:35.110Z,12.07
2022-10-21T12:28:15.128Z,11.17
2022-10-21T12:33:28.029Z,14.67
2022-10-21T12:38:48.461Z,16.27
2022-10-21T12:44:05.458Z,15.23
2022-10-21T12:49:23.239Z,16.53
2022-10-21T12:54:32.150Z,18.33
2022-10-21T12:59:42.369Z,19.47
2022-10-21T13:04:50.618Z,20.37
2022-10-21T13:10:25.120Z,23.23
2022-10-21T13:15:50.356Z,20.20
2022-10-21T13:21:02.453Z,25.20
2022-10-21T13:26:18.881Z,30.67
2022-10-21T13:31:26.477Z,23.17
2022-10-21T13:36:40.141Z,26.97
2022-10-21T13:41:47.223Z,23.40
2022-10-21T13:46:54.776Z,22.80
2022-10-21T13:52:03.177Z,21.27
2022-10-21T13:57:10.033Z,21.30
2022-10-21T14:02:30.655Z,21.30
2022-10-21T14:07:35.881Z,23.27
2022-10-21T14:12:47.902Z,19.57
2022-10-21T14:18:02.052Z,22.47
2022-10-21T14:23:08.659Z,20.70
2022-10-21T14:28:14.936Z,20.10
2022-10-21T14:33:29.767Z,19.00
2022-10-21T14:38:43.284Z,18.43
2022-10-21T14:43:50.468Z,17.13
2022-10-21T14:49:03.785Z,19.20
2022-10-21T14:54:10.402Z,20.57
2022-10-21T14:59:22.904Z,17.07
2022-10-21T15:04:52.268Z,21.83
2022-10-21T15:10:17.848Z,20.20
2022-10-21T15:15:54.139Z,21.43
2022-10-21T15:21:04.309Z,17.10
2022-10-21T15:26:14.531Z,19.50
2022-10-21T15:31:21.466Z,18.90
2022-10-21T15:36:29.039Z,19.20
2022-10-21T15:41:34.240Z,18.93
2022-10-21T15:46:46.287Z,20.23
2022-10-21T15:51:54.940Z,20.80
2022-10-21T15:57:02.404Z,18.63
2022-10-21T16:02:09.474Z,20.10
2022-10-21T16:07:33.166Z,19.07
2022-10-21T16:12:38.978Z,21.20
2022-10-21T16:17:46.758Z,18.70
2022-10-21T16:22:55.774Z,19.77
2022-10-21T16:28:02.381Z,18.93
2022-10-21T16:33:07.409Z,18.73
2022-10-21T16:38:16.188Z,17.50
2022-10-21T16:43:21.083Z,19.00
2022-10-21T16:48:26.032Z,18.50
2022-10-21T16:53:33.405Z,18.33
2022-10-21T16:58:38.665Z,18.30
2022-10-21T17:03:43.542Z,18.00
2022-10-21T17:08:51.973Z,19.77
2022-10-21T17:13:57.000Z,18.67
2022-10-21T17:19:02.038Z,19.70
2022-10-21T17:24:10.855Z,19.53
2022-10-21T17:29:16.621Z,22.37
2022-10-21T17:34:33.449Z,21.63
2022-10-21T17:39:41.027Z,20.63
2022-10-21T17:44:45.996Z,22.40
2022-10-21T17:49:50.863Z,22.00
2022-10-21T17:54:58.344Z,22.63
2022-10-21T18:00:03.250Z,22.30
2022-10-21T18:05:12.294Z,25.83
2022-10-21T18:10:19.789Z,27.87
2022-10-21T18:15:27.808Z,27.03
2022-10-21T18:20:32.665Z,25.67
2022-10-21T18:25:41.844Z,33.60
2022-10-21T18:30:46.628Z,27.53
2022-10-21T18:35:51.977Z,28.33
2022-10-21T18:41:15.337Z,30.33
2022-10-21T18:46:24.886Z,29.10
2022-10-21T18:51:29.760Z,32.37
2022-10-21T18:56:41.451Z,33.50
2022-10-21T19:01:46.627Z,30.40
2022-10-21T19:06:51.945Z,27.97
2022-10-21T19:12:02.925Z,33.83
2022-10-21T19:17:10.022Z,31.97
2022-10-21T19:22:23.640Z,32.47
2022-10-21T19:27:31.306Z,31.70
2022-10-21T19:32:36.198Z,33.97
2022-10-21T19:37:41.058Z,36.70
2022-10-21T19:42:49.866Z,34.67
2022-10-21T19:47:56.109Z,32.60
2022-10-21T19:53:01.063Z,34.73
2022-10-21T19:58:08.674Z,32.70
2022-10-21T20:03:14.034Z,27.70
2022-10-21T20:08:21.249Z,29.80
2022-10-21T20:13:30.878Z,29.83
2022-10-21T20:18:35.796Z,33.27
2022-10-21T20:23:41.492Z,32.50
2022-10-21T20:28:51.061Z,32.83
2022-10-21T20:33:58.123Z,38.20
2022-10-21T20:39:04.610Z,36.63
2022-10-21T20:44:16.212Z,34.97
2022-10-21T20:49:21.101Z,33.50
2022-10-21T20:54:28.228Z,38.97
2022-10-21T20:59:35.847Z,40.13
2022-10-21T21:04:40.811Z,41.93
2022-10-21T21:10:01.795Z,40.57
2022-10-21T21:15:12.503Z,37.70
2022-10-21T21:20:17.612Z,36.00
2022-10-21T21:25:22.389Z,39.00
2022-10-21T21:30:29.781Z,40.70
2022-10-21T21:35:34.635Z,38.50
2022-10-21T21:40:39.407Z,39.50
2022-10-21T21:45:49.924Z,42.63
2022-10-21T21:50:55.225Z,41.17
2022-10-21T21:56:03.718Z,44.70
2022-10-21T22:01:16.324Z,46.97
2022-10-21T22:06:22.617Z,45.00
2022-10-21T22:11:29.829Z,49.23
2022-10-21T22:16:37.330Z,55.43
2022-10-21T22:21:42.655Z,52.83
2022-10-21T22:26:47.625Z,50.80
2022-10-21T22:31:55.105Z,50.80
2022-10-21T22:37:02.221Z,47.97
2022-10-21T22:42:07.257Z,42.77
2022-10-21T22:47:15.701Z,40.50
2022-10-21T22:52:22.136Z,40.80
2022-10-21T22:57:27.079Z,40.90
2022-10-21T23:02:34.641Z,37.60
2022-10-21T23:07:39.447Z,39.70
2022-10-21T23:12:44.331Z,36.57
2022-10-21T23:17:52.140Z,34.93
2022-10-21T23:22:57.014Z,39.07
2022-10-21T23:28:02.161Z,34.37
2022-10-21T23:33:09.585Z,42.93
2022-10-21T23:38:14.556Z,41.50
2022-10-21T23:43:23.003Z,43.63
2022-10-21T23:48:30.642Z,44.43
2022-10-21T23:53:35.631Z,43.20
2022-10-21T23:58:40.565Z,44.40
